Morrison, Iowa
Current Conditions -  °F | °C
As of 11:53 AM on Thursday 23 Oct 2014 (Local Time) from KMIW Reporting Station
Overcast Overcast  
Wind Chill: 55°   Ceiling: 700
Heat Index: 55°   Visibility: 10mi
Dew Point: 53°   Wind: 6mph
Humidity: 93%   Direction: 200°SSW
Pressure: 30.04"   Gusts: NA
Location:  42.34°N, 92.67°W
Report Text: KMIW 231653Z AUTO 20005KT 10SM OVC007 13/12 A3004 RMK AO2 SLP173 T01280117
Loading
Personal Weather Stations






























Interactive Weather Map
Tropical Storm Tracking
New forecast layout! Learn more

10-Day Weather Forecast

Advertisements
Track Severe Weather on mobile